Flight Track Log - Related Links

Times and Time Zones

All times are in EDT time to prevent confusion due to time zone crossing. See the SKW4526 flight status page for this flight to view local times or setup timezone preferences in your user account.

Time Position Orientation Groundspeed Altitude Reporting Facility
EDT Latitude Longitude Course Direction KTS MPH feet Rate Location/Type
Thu 05:45:49 PM 40.8033 -111.9633 355° North 167 192 4,700  Level Salt Lake Center
Thu 05:46:44 PM 40.8519 -111.9694 354° North 204 235 6,200 1,810 Climbing Salt Lake Center
Thu 05:47:45 PM 40.9275 -111.9808 354° North 257 296 8,200 2,132 Climbing Salt Lake Center
Thu 05:48:45 PM 41.0047 -111.9914 72° East 277 319 10,500 2,146 Climbing Salt Lake Center
Thu 05:50:16 PM 41.0339 -111.8694 120° Southeast 300 345 13,600 1,882 Climbing Salt Lake Center
Thu 05:51:18 PM 40.9861 -111.7592 120° Southeast 321 369 15,300 1,872 Climbing Salt Lake Center
Thu 05:52:21 PM 40.9389 -111.6508 102° East 335 386 17,500 2,016 Climbing Salt Lake Center
Thu 05:53:23 PM 40.9183 -111.5242 95° East 359 413 19,500 1,968 Climbing Salt Lake Center
Thu 05:54:26 PM 40.9092 -111.3903 99° East 361 415 21,600 2,016 Climbing Salt Lake Center
Thu 05:55:28 PM 40.8906 -111.2292 100° East 376 433 23,700 1,824 Climbing Salt Lake Center
Thu 05:56:31 PM 40.8719 -111.0883 99° East 385 443 25,400 1,571 Climbing Salt Lake Center
Thu 05:57:34 PM 40.8550 -110.9450 99° East 390 449 27,000 1,440 Climbing Salt Lake Center
Thu 05:58:36 PM 40.8372 -110.7981 102° East 398 458 28,400 1,296 Climbing Salt Lake Center
Thu 05:59:39 PM 40.8131 -110.6500 121° Southeast 407 468 29,700 1,200 Climbing Salt Lake Center
Thu 06:00:41 PM 40.7519 -110.5156 121° Southeast 401 461 30,900 1,056 Climbing Salt Lake Center
Thu 06:01:44 PM 40.6856 -110.3708 119° Southeast 413 475 31,900 1,056 Climbing Salt Lake Center
Thu 06:02:46 PM 40.6253 -110.2253 108° East 422 486 33,100 1,056 Climbing Salt Lake Center
Thu 06:03:49 PM 40.5897 -110.0825 93° East 425 489 34,100 762 Climbing Salt Lake Center
Thu 06:04:52 PM 40.5828 -109.9031 92° East 445 512 34,700 528 Climbing Salt Lake Center
Thu 06:05:54 PM 40.5792 -109.7464 91° East 448 516 35,200 720 Climbing Salt Lake Center
Thu 06:06:57 PM 40.5764 -109.5617 91° East 451 519 36,200 816 Climbing Salt Lake Center
Thu 06:07:59 PM 40.5736 -109.4028 91° East 453 521 36,900 768 Climbing Salt Lake Center
Thu 06:09:02 PM 40.5708 -109.2189 91° East 450 518 37,800 816 Climbing Salt Lake Center
Thu 06:10:04 PM 40.5686 -109.0628 92° East 447 514 38,600 576 Climbing Salt Lake Center
Thu 06:11:07 PM 40.5631 -108.8850 92° East 440 506 39,000 192 Climbing Salt Lake Center
Thu 06:12:09 PM 40.5597 -108.7328 89° East 439 505 39,000  Level Salt Lake Center
Thu 06:13:12 PM 40.5611 -108.5486 88° East 448 516 39,000  Level Salt Lake Center
Thu 06:14:14 PM 40.5658 -108.3869 88° East 459 528 39,000  Level Salt Lake Center
Thu 06:15:16 PM 40.5708 -108.1969 88° East 465 535 39,000  Level Salt Lake Center
Thu 06:16:15 PM 40.5750 -108.0233 89° East 468 539 39,000  Level Denver Center
Thu 06:17:18 PM 40.5775 -107.8586 88° East 468 539 39,000 -96 Level Denver Center
Thu 06:18:20 PM 40.5817 -107.6644 89° East 472 543 38,800 -576 Descending Denver Center
Thu 06:19:23 PM 40.5847 -107.4964 89° East 476 548 37,800 -1,008 Descending Denver Center
Thu 06:20:25 PM 40.5869 -107.2992 88° East 481 554 36,700 -1,008 Descending Denver Center
Thu 06:21:28 PM 40.5903 -107.1275 89° East 481 554 35,700 -810 Descending Denver Center
Thu 06:22:31 PM 40.5936 -106.9508 89° East 482 555 35,000 -336 Descending Denver Center
Thu 06:23:33 PM 40.5961 -106.7800 89° East 470 541 35,000  Level Denver Center
Thu 06:24:36 PM 40.5978 -106.5864 90° East 445 512 35,000  Level Denver Center
Thu 06:25:39 PM 40.5981 -106.4442 89° East 429 494 35,000  Level Denver Center
Thu 06:26:41 PM 40.5992 -106.2661 89° East 433 498 35,000 -1,248 Level Denver Center
Thu 06:27:44 PM 40.6011 -106.0903 89° East 446 513 32,400 -2,736 Descending Denver Center
Thu 06:28:46 PM 40.6022 -105.9225 87° East 452 520 29,300 -3,120 Descending Denver Center
Thu 06:29:49 PM 40.6078 -105.7561 74° East 452 520 25,900 -3,048 Descending Denver Center
Thu 06:30:52 PM 40.6408 -105.6047 74° East 430 495 22,900 -3,168 Descending Denver Center
Thu 06:31:54 PM 40.6772 -105.4378 123° Southeast 407 468 19,300 -2,832 Descending Denver Center
Thu 06:32:57 PM 40.6208 -105.3239 158° South 383 441 17,000 -1,238 Descending Denver Center
Thu 06:34:00 PM 40.5356 -105.2778 167° South 334 384 16,700 -1,296 Descending Denver Center
Thu 06:35:02 PM 40.4431 -105.2494 170° South 320 368 14,300 -1,296 Descending Denver Center
Thu 06:36:05 PM 40.3600 -105.2300 167° South 308 354 14,000 -528 Descending Denver Center
Thu 06:37:07 PM 40.2747 -105.2036 168° South 296 341 13,200 -480 Descending Denver Center
Thu 06:38:10 PM 40.1961 -105.1819 165° South 291 335 13,000 -95 Descending Denver Center
Thu 06:39:13 PM 40.1108 -105.1528 156° South 294 338 13,000  Level Denver Center
Thu 06:40:15 PM 40.0372 -105.1097 159° South 292 336 13,000 -384 Level Denver Center
Thu 06:41:18 PM 39.9658 -105.0747 160° South 253 291 12,200 -1,056 Descending Denver Center
Thu 06:42:20 PM 39.8975 -105.0417 147° Southeast 244 281 10,800 -1,296 Descending Denver Center
Thu 06:43:23 PM 39.8442 -104.9972 92° East 242 278 9,500 -1,296 Descending Denver Center
Thu 06:44:25 PM 39.8422 -104.9069 91° East 236 272 8,100 -1,296 Descending Denver Center
Thu 06:45:28 PM 39.8414 -104.8264 91° East 225 259 6,800 -1,048 Descending Denver Center
Thu 06:46:31 PM 39.8408 -104.7622 90° East 160 184 5,900 -720 Descending Denver Center
Thu 06:47:33 PM 39.8406 -104.7181 58° Northeast 148 170 5,300 -581 Descending Denver Center
Thu 06:54:52 PM 40.2038 -103.9365 238° Southwest  Level Estimated
Thu 06:55:52 PM 39.8500 -104.6667 238° Southwest  Level FlightAware Approximate

Login

Don't have an account? Register now (free) for customized features, flight alerts, and more!